Flight Track Log - Related Links

Times and Time Zones

All times are in EDT time to prevent confusion due to time zone crossing. See the N244A flight status page for this flight to view local times or setup timezone preferences in your user account.

Time Position Orientation Groundspeed Altitude Reporting Facility
EDT Latitude Longitude Course Direction KTS MPH feet Rate Location/Type
Sat 12:48:56 PM 43.9164 -76.0692 184° South 233 268 7,700  Level Boston Center
Sat 12:49:56 PM 43.8586 -75.9878 135° Southeast 247 284 11,200 2,950 Climbing Boston Center
Sat 12:50:56 PM 43.7753 -75.9139 147° Southeast 297 342 13,600 2,750 Climbing Boston Center
Sat 12:51:56 PM 43.6883 -75.8283 145° Southeast 351 404 16,700 2,700 Climbing Boston Center
Sat 12:52:56 PM 43.6033 -75.7375 142° Southeast 378 435 19,000 1,900 Climbing Boston Center
Sat 12:53:56 PM 43.5081 -75.6408 144° Southeast 405 466 20,500 1,700 Climbing Boston Center
Sat 12:54:56 PM 43.4128 -75.5442 144° Southeast 423 487 22,400 1,200 Climbing Boston Center
Sat 12:55:56 PM 43.3133 -75.4450 144° Southeast 433 498 22,900 250 Climbing Boston Center
Sat 12:56:56 PM 43.2136 -75.3489 145° Southeast 464 534 22,900  Level Boston Center
Sat 12:57:56 PM 43.1100 -75.2386 142° Southeast 476 548 22,900 50 Level Boston Center
Sat 12:58:56 PM 43.0042 -75.1317 144° Southeast 476 548 23,000  Climbing Boston Center
Sat 12:59:56 PM 42.8983 -75.0222 143° Southeast 481 554 22,900 -50 Descending Boston Center
Sat 01:00:56 PM 42.7922 -74.9186 144° Southeast 481 554 22,900 50 Level Boston Center
Sat 01:01:56 PM 42.6861 -74.8100 143° Southeast 481 554 23,000 50 Climbing Boston Center
Sat 01:02:56 PM 42.5800 -74.7072 144° Southeast 481 554 23,000 -50 Level Boston Center
Sat 01:03:56 PM 42.4694 -74.6017 145° Southeast 487 560 22,900  Descending Boston Center
Sat 01:04:56 PM 42.3608 -74.4969 145° Southeast 487 560 23,000 50 Climbing Boston Center
Sat 01:05:56 PM 42.2544 -74.3953 145° Southeast 487 560 23,000  Level Boston Center
Sat 01:06:56 PM 42.1322 -74.3383 161° South 472 543 23,000  Level Boston Center
Sat 01:07:56 PM 42.0078 -74.3008 167° South 461 531 23,000 -434 Level Boston Center
Sat 01:09:42 PM 41.7800 -74.2092 163° South 453 521 21,800 -764 Descending New York Center
Sat 01:10:41 PM 41.6500 -74.1636 165° South 470 541 20,900 -706 Descending New York Center
Sat 01:11:41 PM 41.5431 -74.1192 163° South 470 541 20,400 -504 Descending New York Center
Sat 01:12:40 PM 41.4150 -74.0853 169° South 482 555 19,900 -252 Descending New York Center
Sat 01:13:40 PM 41.3092 -74.1408 202° Southwest 425 489 19,900 50 Level New York Center
Sat 01:14:41 PM 41.2214 -74.2247 216° Southwest 379 436 20,000 50 Climbing New York Center
Sat 01:15:39 PM 41.1567 -74.3039 223° Southwest 347 399 20,000  Level New York Center
Sat 01:16:39 PM 41.0778 -74.3631 209° Southwest 341 392 20,000 -99 Level New York Center
Sat 01:17:40 PM 40.9875 -74.3144 158° South 309 356 19,800 -566 Descending New York Center
Sat 01:18:25 PM 40.9500 -74.2333 121° Southeast 382 440 19,000 -457 Descending New York TRACON
Sat 01:19:25 PM 40.9000 -74.1000 116° Southeast 372 428 19,000 -650 Level New York TRACON
Sat 01:20:25 PM 40.8333 -73.9833 127° Southeast 383 441 17,700 -1,300 Descending New York TRACON
Sat 01:21:25 PM 40.7667 -73.9167 143° Southeast 350 403 16,400 -1,789 Descending New York TRACON
Sat 01:22:19 PM 40.7167 -73.8167 123° Southeast 355 409 14,300 -1,789 Descending New York TRACON
Sat 01:23:19 PM 40.6833 -73.7000 111° Southeast 390 449 13,000 -1,238 Descending New York TRACON
Sat 01:24:25 PM 40.6500 -73.5833 111° Southeast 319 367 11,700 -2,050 Descending New York TRACON
Sat 01:25:19 PM 40.6833 -73.5000 62° Northeast 326 375 8,900 -3,211 Descending New York TRACON
Sat 01:26:19 PM 40.7667 -73.5000 360° North 294 338 5,600 -3,050 Descending New York TRACON
Sat 01:27:19 PM 40.8167 -73.4667 27° Northeast 294 338 2,800 -1,800 Descending New York TRACON
Sat 01:28:19 PM 40.7833 -73.4167 131° Southeast 250 288 2,000 -1,200 Descending New York TRACON
Sat 01:29:19 PM 40.7333 -73.4167 180° South 159 183 400 -1,600 Descending New York TRACON
Sat 01:34:00 PM 40.7288 -73.4134 339° North  Level Estimated
Sat 01:41:00 PM 40.7288 -73.4134 339° North  Level Estimated
Sat 01:42:00 PM 40.7288 -73.4134 339° North  Level Estimated
Sat 01:43:00 PM 40.7288 -73.4134 339° North  Level Estimated
Sat 01:44:00 PM 40.7288 -73.4134 339° North  Level Estimated

Login

Don't have an account? Register now (free) for customized features, flight alerts, and more!